Time;durP1;ratioP1;P1;durP2;ratioP2;P2;SDS_P1;SDS_P2;PMS_P1;PMS_P2;Temp;Humidity;BMP_temperature;BMP_pressure;BME280_temperature;BME280_humidity;BME280_pressure;Samples;Min_cycle;Max_cycle;Signal;HPM_P1;HPM_P2
2021/03/02 00:02:07;;;;;;;26.75;14.65;;;1.30;99.90;;;;;;5014294;28;20483;-70
2021/03/02 00:04:33;;;;;;;28.13;15.43;;;1.30;99.90;;;;;;5013586;28;20037;-70
2021/03/02 00:06:59;;;;;;;23.50;14.10;;;1.30;99.90;;;;;;5014457;28;20029;-70
2021/03/02 00:09:26;;;;;;;29.73;14.82;;;1.20;99.90;;;;;;5013924;28;20026;-70
2021/03/02 00:11:52;;;;;;;25.17;14.55;;;1.20;99.90;;;;;;5014431;28;20022;-70
2021/03/02 00:14:18;;;;;;;23.20;14.23;;;1.20;99.90;;;;;;5013219;28;20030;-70
2021/03/02 00:16:51;;;;;;;25.63;13.75;;;1.20;99.90;;;;;;5013836;28;20037;-71
2021/03/02 00:19:19;;;;;;;27.40;14.20;;;1.10;99.90;;;;;;5014076;28;20099;-70
2021/03/02 00:21:56;;;;;;;24.05;13.25;;;1.10;99.90;;;;;;5013815;28;20361;-70
2021/03/02 00:24:36;;;;;;;27.60;14.55;;;1.10;99.90;;;;;;5012065;28;20079;-70
2021/03/02 00:27:03;;;;;;;27.73;15.18;;;1.00;99.90;;;;;;5013743;28;20053;-70
2021/03/02 00:29:29;;;;;;;25.30;14.82;;;1.00;99.90;;;;;;5014306;28;20163;-70
2021/03/02 00:31:56;;;;;;;27.05;15.98;;;1.00;99.90;;;;;;5014778;28;20026;-70
2021/03/02 00:34:21;;;;;;;30.27;15.60;;;0.90;99.90;;;;;;5012837;28;20033;-69
2021/03/02 00:36:47;;;;;;;27.42;14.75;;;0.90;99.90;;;;;;5013491;28;20022;-70
2021/03/02 00:39:13;;;;;;;29.85;15.57;;;0.90;99.90;;;;;;5012985;28;20112;-70
2021/03/02 00:41:38;;;;;;;28.35;15.18;;;0.80;99.90;;;;;;5013704;28;20104;-70
2021/03/02 00:44:04;;;;;;;28.52;15.88;;;0.80;99.90;;;;;;5012859;28;20026;-70
2021/03/02 00:46:30;;;;;;;26.10;14.40;;;0.80;99.90;;;;;;5013236;28;20032;-70
2021/03/02 00:48:55;;;;;;;30.02;14.98;;;0.80;99.90;;;;;;5013439;28;20030;-69
2021/03/02 00:51:21;;;;;;;25.08;13.95;;;0.70;99.90;;;;;;5013065;28;20033;-69
2021/03/02 00:53:47;;;;;;;28.25;15.25;;;0.70;99.90;;;;;;5011947;28;20100;-69
2021/03/02 00:56:12;;;;;;;32.42;15.68;;;0.70;99.90;;;;;;5013084;28;20018;-70
2021/03/02 00:58:38;;;;;;;29.00;15.90;;;0.70;99.90;;;;;;5012970;28;20142;-70
2021/03/02 01:01:04;;;;;;;30.83;16.08;;;0.70;99.90;;;;;;5012855;28;20143;-70
2021/03/02 01:03:29;;;;;;;34.00;16.50;;;0.60;99.90;;;;;;5012924;28;20053;-70
2021/03/02 01:05:55;;;;;;;28.23;15.52;;;0.60;99.90;;;;;;5013066;28;20034;-71
2021/03/02 01:08:21;;;;;;;29.73;14.85;;;0.60;99.90;;;;;;5012140;28;20026;-71
2021/03/02 01:10:47;;;;;;;28.42;16.15;;;0.60;99.90;;;;;;5012714;28;20026;-70
2021/03/02 01:13:13;;;;;;;30.60;16.10;;;0.60;99.90;;;;;;5012957;28;20030;-70
2021/03/02 01:15:39;;;;;;;30.23;15.48;;;0.50;99.90;;;;;;5013244;28;20029;-69
2021/03/02 01:18:05;;;;;;;27.98;15.30;;;0.50;99.90;;;;;;5013138;28;20099;-70
2021/03/02 01:20:31;;;;;;;24.05;13.18;;;0.50;99.90;;;;;;5012467;28;20021;-70
2021/03/02 01:22:56;;;;;;;28.42;15.30;;;0.40;99.90;;;;;;5011896;28;20552;-70
2021/03/02 01:25:23;;;;;;;27.92;15.48;;;0.40;99.90;;;;;;5012156;28;20040;-70
2021/03/02 01:27:49;;;;;;;33.35;16.17;;;0.30;99.90;;;;;;5012611;28;20018;-72
2021/03/02 01:30:16;;;;;;;28.23;15.43;;;0.30;99.90;;;;;;5012753;28;20084;-71
2021/03/02 01:32:42;;;;;;;29.83;15.73;;;0.30;99.90;;;;;;5012213;28;20512;-70
2021/03/02 01:35:10;;;;;;;30.88;15.20;;;0.30;99.90;;;;;;5012432;28;20026;-71
2021/03/02 01:37:36;;;;;;;28.75;15.68;;;0.20;99.90;;;;;;5012701;28;20496;-72
2021/03/02 01:40:22;;;;;;;28.70;14.48;;;0.20;99.90;;;;;;5012383;28;20037;-71
2021/03/02 01:42:48;;;;;;;30.85;15.40;;;0.20;99.90;;;;;;5011542;28;20133;-71
2021/03/02 01:45:17;;;;;;;31.65;16.67;;;0.10;99.90;;;;;;5010889;28;20112;-69
2021/03/02 01:47:44;;;;;;;31.75;16.40;;;0.10;99.90;;;;;;5012331;28;20022;-71
2021/03/02 01:50:12;;;;;;;27.45;15.23;;;0.10;99.90;;;;;;5012317;28;20018;-71
2021/03/02 01:52:38;;;;;;;32.63;15.48;;;0.00;99.90;;;;;;5011694;28;20488;-70
2021/03/02 01:55:06;;;;;;;30.83;16.42;;;0.10;99.90;;;;;;5011818;28;20168;-70
2021/03/02 01:57:32;;;;;;;33.95;16.85;;;0.10;99.90;;;;;;5011913;28;20109;-71
2021/03/02 02:00:02;;;;;;;32.40;17.52;;;0.10;99.90;;;;;;5011970;28;20030;-71
2021/03/02 02:02:46;;;;;;;31.38;17.40;;;0.00;99.90;;;;;;5011539;28;20026;-72
2021/03/02 02:05:14;;;;;;;33.85;16.48;;;0.00;99.90;;;;;;5011454;28;20504;-71
2021/03/02 02:07:48;;;;;;;30.52;16.52;;;0.00;99.90;;;;;;5011754;28;20030;-71
2021/03/02 02:10:25;;;;;;;29.17;15.82;;;0.00;99.90;;;;;;5011694;28;20029;-70
2021/03/02 02:12:56;;;;;;;25.80;15.18;;;0.00;99.90;;;;;;5010601;28;20022;-70
2021/03/02 02:15:26;;;;;;;28.30;15.18;;;0.00;99.90;;;;;;5011423;28;20037;-71
2021/03/02 02:18:01;;;;;;;26.30;14.57;;;0.00;99.90;;;;;;5011362;28;20056;-69
2021/03/02 02:20:31;;;;;;;30.52;16.42;;;0.00;99.90;;;;;;5012603;28;20674;-70
2021/03/02 02:23:17;;;;;;;30.10;15.20;;;-0.10;99.90;;;;;;5014288;28;20037;-72
2021/03/02 02:25:59;;;;;;;28.90;15.57;;;-0.10;99.90;;;;;;5014531;28;20026;-71
2021/03/02 02:28:25;;;;;;;33.35;17.13;;;-0.10;99.90;;;;;;5014865;28;20109;-71
2021/03/02 02:30:55;;;;;;;29.65;15.32;;;-0.20;99.90;;;;;;5013481;28;20030;-70
2021/03/02 02:33:23;;;;;;;27.50;15.52;;;-0.20;99.90;;;;;;5014441;28;20388;-70
2021/03/02 02:35:50;;;;;;;27.33;15.45;;;-0.20;99.90;;;;;;5014906;28;20060;-70
2021/03/02 02:38:19;;;;;;;32.85;16.73;;;-0.20;99.90;;;;;;5015212;28;20022;-70
2021/03/02 02:40:45;;;;;;;29.02;15.05;;;-0.30;99.90;;;;;;5014690;28;20341;-70
2021/03/02 02:43:12;;;;;;;28.13;14.65;;;-0.30;99.90;;;;;;5014275;28;20048;-69
2021/03/02 02:45:38;;;;;;;28.13;14.60;;;-0.30;99.90;;;;;;5014447;28;20105;-71
2021/03/02 02:48:05;;;;;;;26.52;13.50;;;-0.40;99.90;;;;;;5014411;28;20030;-70
2021/03/02 02:50:31;;;;;;;30.77;15.52;;;-0.40;99.90;;;;;;5012321;28;20018;-70
2021/03/02 02:52:58;;;;;;;26.23;14.38;;;-0.40;99.90;;;;;;5015357;28;20057;-70
2021/03/02 02:55:50;;;;;;;27.25;14.93;;;-0.50;99.90;;;;;;5020132;28;20033;-71
2021/03/02 02:58:22;;;;;;;27.98;15.35;;;-0.50;99.90;;;;;;5022653;28;20235;-69
2021/03/02 03:00:50;;;;;;;27.67;14.90;;;-0.50;99.90;;;;;;5021911;28;20484;-72
2021/03/02 03:03:21;;;;;;;27.55;15.18;;;-0.60;99.90;;;;;;5018805;28;20036;-70
2021/03/02 03:05:51;;;;;;;32.05;16.05;;;-0.50;99.90;;;;;;5019795;28;20053;-70
2021/03/02 03:08:20;;;;;;;33.80;15.65;;;-0.50;99.90;;;;;;5014250;28;20038;-70
2021/03/02 03:10:49;;;;;;;30.40;15.98;;;-0.50;99.90;;;;;;5013824;28;20030;-69
2021/03/02 03:13:18;;;;;;;27.40;15.68;;;-0.60;99.90;;;;;;5013059;28;20472;-71
2021/03/02 03:15:48;;;;;;;36.38;17.27;;;-0.60;99.90;;;;;;5013534;28;20120;-72
2021/03/02 03:18:18;;;;;;;29.48;15.75;;;-0.60;99.90;;;;;;5013554;28;20021;-72
2021/03/02 03:20:46;;;;;;;30.88;16.35;;;-0.60;99.90;;;;;;5012455;28;20033;-72
2021/03/02 03:23:14;;;;;;;33.45;15.57;;;-0.60;99.90;;;;;;5012794;28;20437;-70
2021/03/02 03:25:40;;;;;;;26.60;14.80;;;-0.60;99.90;;;;;;5013155;28;20396;-71
2021/03/02 03:28:06;;;;;;;28.55;15.05;;;-0.60;99.90;;;;;;5013588;28;20022;-69
2021/03/02 03:30:35;;;;;;;29.90;15.85;;;-0.60;99.90;;;;;;5013794;28;20055;-70
2021/03/02 03:33:05;;;;;;;28.52;15.82;;;-0.60;99.90;;;;;;5012865;28;20432;-69
2021/03/02 03:35:32;;;;;;;30.25;17.45;;;-0.60;99.90;;;;;;5013827;28;20036;-70
2021/03/02 03:37:58;;;;;;;30.50;15.10;;;-0.70;99.90;;;;;;5013469;28;20452;-70
2021/03/02 03:40:23;;;;;;;33.85;16.73;;;-0.70;99.90;;;;;;5013086;28;20064;-70
2021/03/02 03:42:49;;;;;;;26.77;15.25;;;-0.70;99.90;;;;;;5013031;28;20471;-70
2021/03/02 03:45:15;;;;;;;26.73;15.50;;;-0.70;99.90;;;;;;5011979;28;20045;-71
2021/03/02 03:47:41;;;;;;;30.17;16.60;;;-0.70;99.90;;;;;;5013284;28;20022;-71
2021/03/02 03:50:08;;;;;;;30.80;16.02;;;-0.90;99.90;;;;;;5013215;28;20088;-71
2021/03/02 03:52:38;;;;;;;33.08;16.67;;;-0.90;99.90;;;;;;5013168;28;20029;-72
2021/03/02 03:55:06;;;;;;;35.00;17.02;;;-0.80;99.90;;;;;;5012671;28;20022;-72
2021/03/02 03:57:32;;;;;;;30.88;16.70;;;-0.90;99.90;;;;;;5013201;28;20029;-70
2021/03/02 04:00:00;;;;;;;28.13;15.85;;;-0.90;99.90;;;;;;5013297;28;20033;-70
2021/03/02 04:02:26;;;;;;;28.85;15.95;;;-0.90;99.90;;;;;;5012184;28;20032;-70
2021/03/02 04:04:52;;;;;;;28.45;16.25;;;-0.90;99.90;;;;;;5012450;28;20022;-70
2021/03/02 04:07:19;;;;;;;31.20;15.27;;;-0.90;99.90;;;;;;5013227;28;20048;-71
2021/03/02 04:09:45;;;;;;;27.92;14.75;;;-1.00;99.90;;;;;;5013264;28;20107;-71
2021/03/02 04:12:12;;;;;;;32.92;16.60;;;-1.00;99.90;;;;;;5011755;28;20559;-71
2021/03/02 04:14:38;;;;;;;32.15;16.83;;;-0.90;99.90;;;;;;5010212;28;20403;-71
2021/03/02 04:17:05;;;;;;;29.20;15.85;;;-1.00;99.90;;;;;;5013171;28;20026;-70
2021/03/02 04:19:30;;;;;;;29.17;15.65;;;-0.90;99.90;;;;;;5013084;28;20109;-70
2021/03/02 04:21:56;;;;;;;30.27;16.08;;;-1.00;99.90;;;;;;5013217;28;20061;-71
2021/03/02 04:24:22;;;;;;;32.13;15.98;;;-1.00;99.90;;;;;;5010812;28;20034;-70
2021/03/02 04:26:48;;;;;;;30.13;15.93;;;-1.00;99.90;;;;;;5013203;28;20030;-70
2021/03/02 04:29:13;;;;;;;31.02;16.05;;;-1.00;99.90;;;;;;5013378;28;20026;-70
2021/03/02 04:31:39;;;;;;;28.52;15.90;;;-1.00;99.90;;;;;;5013563;28;20030;-70
2021/03/02 04:34:05;;;;;;;32.00;16.70;;;-1.10;99.90;;;;;;5016976;28;20052;-69
2021/03/02 04:36:31;;;;;;;32.42;16.10;;;-1.10;99.90;;;;;;5020456;28;20125;-70
2021/03/02 04:38:57;;;;;;;33.17;16.80;;;-1.10;99.90;;;;;;5012807;28;20026;-70
2021/03/02 04:41:23;;;;;;;31.73;15.88;;;-1.10;99.90;;;;;;5012810;28;20094;-70
2021/03/02 04:43:49;;;;;;;30.23;16.17;;;-1.20;99.90;;;;;;5011518;28;20422;-71
2021/03/02 04:46:14;;;;;;;30.30;15.57;;;-1.20;99.90;;;;;;5012450;28;20030;-72
2021/03/02 04:48:40;;;;;;;31.30;16.75;;;-1.20;99.90;;;;;;5012966;28;20022;-70
2021/03/02 04:51:07;;;;;;;30.25;15.73;;;-1.20;99.90;;;;;;5012493;28;20025;-71
2021/03/02 04:53:33;;;;;;;30.55;15.85;;;-1.30;99.90;;;;;;5012266;28;20476;-70
2021/03/02 04:56:00;;;;;;;34.60;16.73;;;-1.30;99.90;;;;;;5012599;28;20026;-70
2021/03/02 04:58:26;;;;;;;32.15;17.33;;;-1.30;99.90;;;;;;5012726;28;20029;-71
2021/03/02 05:00:51;;;;;;;35.67;16.35;;;-1.30;99.90;;;;;;5012682;28;20041;-71
2021/03/02 05:03:17;;;;;;;29.08;15.15;;;-1.30;99.90;;;;;;5012026;28;20033;-71
2021/03/02 05:05:43;;;;;;;29.50;16.65;;;-1.20;99.90;;;;;;5012523;28;20500;-72
2021/03/02 05:08:08;;;;;;;29.73;15.77;;;-1.30;99.90;;;;;;5012660;28;20109;-71
2021/03/02 05:10:35;;;;;;;31.77;17.17;;;-1.30;99.90;;;;;;5012600;28;20034;-70
2021/03/02 05:13:00;;;;;;;31.90;16.85;;;-1.30;99.90;;;;;;5011823;28;20075;-71
2021/03/02 05:15:26;;;;;;;32.58;16.88;;;-1.40;99.90;;;;;;5012119;28;20117;-71
2021/03/02 05:17:51;;;;;;;32.63;17.15;;;-1.40;99.90;;;;;;5012763;28;20041;-70
2021/03/02 05:20:17;;;;;;;29.90;16.40;;;-1.50;99.90;;;;;;5011531;28;20033;-70
2021/03/02 05:22:43;;;;;;;33.08;17.67;;;-1.50;99.90;;;;;;5011826;28;20056;-70
2021/03/02 05:25:09;;;;;;;33.08;17.38;;;-1.40;99.90;;;;;;5012281;28;20120;-69
2021/03/02 05:27:35;;;;;;;34.30;17.77;;;-1.40;99.90;;;;;;5012689;28;20097;-71
2021/03/02 05:30:01;;;;;;;31.88;15.93;;;-1.40;99.90;;;;;;5012415;28;20495;-70
2021/03/02 05:32:26;;;;;;;30.13;16.80;;;-1.40;99.90;;;;;;5012441;28;20025;-70
2021/03/02 05:34:52;;;;;;;35.08;16.88;;;-1.40;99.90;;;;;;5011949;28;20117;-71
2021/03/02 05:37:18;;;;;;;34.30;16.48;;;-1.40;99.90;;;;;;5012518;28;20018;-71
2021/03/02 05:39:43;;;;;;;31.95;16.67;;;-1.50;99.90;;;;;;5012454;28;20034;-70
2021/03/02 05:42:09;;;;;;;28.05;15.32;;;-1.50;99.90;;;;;;5012821;28;20026;-71
2021/03/02 05:44:36;;;;;;;32.15;16.70;;;-1.50;99.90;;;;;;5017330;28;20118;-72
2021/03/02 05:47:03;;;;;;;36.83;17.77;;;-1.40;99.90;;;;;;5018181;28;20023;-71
2021/03/02 05:49:30;;;;;;;30.30;17.00;;;-1.40;99.90;;;;;;5008915;28;20049;-71
2021/03/02 05:51:56;;;;;;;33.10;17.80;;;-1.50;99.90;;;;;;5008327;28;20022;-70
2021/03/02 05:54:22;;;;;;;33.58;16.33;;;-1.50;99.90;;;;;;5008017;28;20029;-70
2021/03/02 05:56:48;;;;;;;30.67;15.98;;;-1.60;99.90;;;;;;5001778;28;20503;-71
2021/03/02 05:59:14;;;;;;;33.92;16.58;;;-1.60;99.90;;;;;;4997706;28;20030;-71
2021/03/02 06:01:40;;;;;;;31.40;16.00;;;-1.60;99.90;;;;;;4998035;28;20034;-72
2021/03/02 06:04:06;;;;;;;29.73;16.00;;;-1.60;99.90;;;;;;4997187;28;20501;-71
2021/03/02 06:06:32;;;;;;;31.83;16.45;;;-1.60;99.90;;;;;;4997845;28;20050;-70
2021/03/02 06:08:58;;;;;;;26.98;14.82;;;-1.50;99.90;;;;;;4995897;28;20065;-69
2021/03/02 06:11:32;;;;;;;29.95;17.02;;;-1.50;99.90;;;;;;4997697;28;20028;-70
2021/03/02 06:14:18;;;;;;;31.25;15.52;;;-1.40;99.90;;;;;;4999020;28;20101;-71
2021/03/02 06:16:45;;;;;;;32.25;16.23;;;-1.40;99.90;;;;;;5016923;28;20033;-69
2021/03/02 06:19:11;;;;;;;32.67;17.20;;;-1.40;99.90;;;;;;5016601;28;20026;-70
2021/03/02 06:21:37;;;;;;;28.48;15.15;;;-1.40;99.90;;;;;;5017213;28;20532;-70
2021/03/02 06:24:03;;;;;;;32.50;16.73;;;-1.40;99.90;;;;;;5015447;28;20033;-69
2021/03/02 06:26:29;;;;;;;30.92;16.42;;;-1.40;99.90;;;;;;5017002;28;20119;-69
2021/03/02 06:28:56;;;;;;;34.80;18.17;;;-1.40;99.90;;;;;;5015463;28;20022;-68
2021/03/02 06:31:31;;;;;;;32.38;17.13;;;-1.30;99.90;;;;;;5015729;28;20033;-66
2021/03/02 06:34:18;;;;;;;32.03;16.95;;;-1.20;99.90;;;;;;5015616;28;20033;-67
2021/03/02 06:36:52;;;;;;;27.42;15.13;;;-1.10;99.90;;;;;;5016868;28;20033;-73
2021/03/02 06:39:21;;;;;;;27.65;15.82;;;-1.10;99.90;;;;;;5016789;28;20504;-72
2021/03/02 06:41:48;;;;;;;36.90;15.60;;;-1.10;99.90;;;;;;5015787;28;20117;-72
2021/03/02 06:44:14;;;;;;;33.75;16.65;;;-1.10;99.90;;;;;;5020235;28;20099;-74
2021/03/02 06:46:41;;;;;;;30.55;16.55;;;-1.10;99.90;;;;;;5011493;28;20025;-71
2021/03/02 06:49:07;;;;;;;28.15;16.00;;;-1.00;99.90;;;;;;4997459;28;20050;-71
2021/03/02 06:51:34;;;;;;;31.75;16.75;;;-0.90;99.90;;;;;;5013650;28;20033;-74
2021/03/02 06:54:15;;;;;;;34.35;15.70;;;-0.80;99.90;;;;;;5014902;28;20026;-73
2021/03/02 06:56:42;;;;;;;29.60;16.88;;;-0.80;99.90;;;;;;5017610;28;20041;-74
2021/03/02 06:59:18;;;;;;;33.78;16.65;;;-1.00;99.90;;;;;;5016906;28;20026;-73
2021/03/02 07:01:48;;;;;;;36.08;16.30;;;-0.70;99.90;;;;;;5017859;28;20040;-72
2021/03/02 07:04:18;;;;;;;29.15;15.15;;;-0.80;99.90;;;;;;5016091;28;20026;-72
2021/03/02 07:06:46;;;;;;;31.33;16.05;;;-0.70;99.90;;;;;;5015361;28;20081;-67
2021/03/02 07:09:15;;;;;;;29.20;16.38;;;-0.70;99.90;;;;;;5016349;28;20435;-68
2021/03/02 07:11:41;;;;;;;31.27;17.02;;;-0.50;99.90;;;;;;5009810;28;20029;-68
2021/03/02 07:14:12;;;;;;;32.78;16.15;;;-0.40;99.90;;;;;;4975878;28;20101;-71
2021/03/02 07:16:41;;;;;;;33.22;15.15;;;-0.50;99.90;;;;;;4976592;28;20069;-70
2021/03/02 07:19:09;;;;;;;28.42;15.35;;;-0.30;99.90;;;;;;4975608;28;20034;-68
2021/03/02 07:21:37;;;;;;;30.27;16.17;;;-0.20;99.90;;;;;;4984710;28;20023;-68
2021/03/02 07:24:05;;;;;;;27.58;16.33;;;-0.10;99.90;;;;;;4975801;28;20034;-69
2021/03/02 07:26:33;;;;;;;30.08;16.60;;;0.00;99.90;;;;;;4975467;28;20504;-70
2021/03/02 07:28:59;;;;;;;30.77;15.55;;;0.00;99.90;;;;;;4977225;28;20072;-70
2021/03/02 07:31:25;;;;;;;28.00;16.13;;;0.10;99.90;;;;;;4995343;28;20058;-71
2021/03/02 07:33:51;;;;;;;32.42;16.42;;;0.10;99.90;;;;;;4994747;28;20568;-70
2021/03/02 07:36:17;;;;;;;31.60;17.65;;;0.30;99.90;;;;;;4994718;28;20045;-69
2021/03/02 07:38:43;;;;;;;29.60;15.40;;;0.50;99.90;;;;;;4998768;28;20488;-67
2021/03/02 07:41:08;;;;;;;30.30;16.63;;;0.60;99.90;;;;;;5015089;28;20025;-70
2021/03/02 07:43:36;;;;;;;30.92;15.90;;;0.60;99.90;;;;;;5013371;28;20030;-69
2021/03/02 07:46:31;;;;;;;29.35;15.93;;;0.70;99.90;;;;;;5012276;28;20032;-68
2021/03/02 07:48:56;;;;;;;26.17;15.95;;;0.90;99.90;;;;;;5002068;28;20066;-67
2021/03/02 07:51:24;;;;;;;27.92;15.60;;;1.10;99.90;;;;;;4994466;28;20034;-69
2021/03/02 07:53:51;;;;;;;28.88;15.43;;;1.20;99.90;;;;;;5009823;28;20036;-68
2021/03/02 07:56:24;;;;;;;28.75;16.33;;;1.40;99.90;;;;;;5014381;28;20030;-67
2021/03/02 07:59:05;;;;;;;28.75;15.68;;;1.50;99.90;;;;;;5008114;28;20736;-68
2021/03/02 08:01:32;;;;;;;29.95;15.98;;;1.80;99.90;;;;;;4993615;28;20030;-68
2021/03/02 08:04:15;;;;;;;29.15;15.68;;;1.80;99.90;;;;;;4994075;28;20508;-68
2021/03/02 08:06:50;;;;;;;26.60;15.40;;;2.10;99.90;;;;;;4993972;28;20093;-68
2021/03/02 08:09:36;;;;;;;26.15;15.02;;;2.20;99.90;;;;;;4993082;28;20096;-69
2021/03/02 08:12:27;;;;;;;27.80;15.23;;;2.40;99.90;;;;;;4993271;28;20034;-68
2021/03/02 08:14:53;;;;;;;26.33;14.85;;;2.50;99.90;;;;;;5001513;28;20076;-69
2021/03/02 08:17:20;;;;;;;25.85;14.80;;;2.70;99.90;;;;;;5012816;28;20026;-70
2021/03/02 08:19:59;;;;;;;32.22;14.90;;;2.90;99.90;;;;;;5011709;28;20026;-68
2021/03/02 08:22:26;;;;;;;19.67;13.20;;;3.20;99.90;;;;;;5012160;28;20494;-69
2021/03/02 08:25:05;;;;;;;21.73;13.32;;;3.50;99.90;;;;;;5002942;28;20503;-69
2021/03/02 08:27:45;;;;;;;21.25;12.82;;;5.40;99.90;;;;;;4993829;28;20026;-68
2021/03/02 08:30:14;;;;;;;20.80;14.45;;;8.90;99.90;;;;;;4991226;28;20022;-71
2021/03/02 08:32:41;;;;;;;20.17;13.80;;;11.20;97.30;;;;;;4980150;28;20384;-74
2021/03/02 08:35:16;;;;;;;18.25;13.07;;;13.70;90.10;;;;;;4983200;28;20037;-73
2021/03/02 08:37:43;;;;;;;17.65;13.20;;;15.20;76.30;;;;;;4993085;28;20109;-72
2021/03/02 08:40:14;;;;;;;15.68;12.13;;;15.60;70.30;;;;;;4994349;28;20023;-71
2021/03/02 08:43:08;;;;;;;17.50;12.18;;;15.40;69.70;;;;;;4986492;28;20076;-71
2021/03/02 08:46:06;;;;;;;17.85;12.77;;;16.20;65.90;;;;;;4991738;28;20486;-72
2021/03/02 08:48:34;;;;;;;16.60;12.50;;;17.00;63.00;;;;;;4984657;28;20038;-73
2021/03/02 08:51:01;;;;;;;13.88;12.18;;;18.00;58.80;;;;;;4986777;28;20458;-72
2021/03/02 08:53:30;;;;;;;16.02;12.13;;;18.30;57.20;;;;;;4981532;28;20366;-71
2021/03/02 08:55:57;;;;;;;18.77;13.02;;;18.60;56.20;;;;;;4980597;28;20084;-70
2021/03/02 08:58:31;;;;;;;16.67;12.20;;;19.60;54.70;;;;;;4982726;28;20019;-71
2021/03/02 09:01:10;;;;;;;13.68;10.95;;;19.80;52.30;;;;;;4997164;28;20116;-72
2021/03/02 09:03:41;;;;;;;15.65;12.23;;;17.90;54.20;;;;;;4999179;28;20017;-71
2021/03/02 09:06:10;;;;;;;14.23;12.10;;;18.90;55.10;;;;;;5003465;28;20025;-71
2021/03/02 09:08:54;;;;;;;14.20;11.82;;;20.40;51.40;;;;;;5002821;28;20388;-72
2021/03/02 09:11:30;;;;;;;15.75;11.45;;;20.70;50.00;;;;;;5001795;28;20126;-73
2021/03/02 09:14:04;;;;;;;14.32;12.82;;;19.10;53.00;;;;;;5012182;28;20080;-72
2021/03/02 09:16:36;;;;;;;16.48;12.00;;;19.80;52.30;;;;;;5012705;28;20508;-72
2021/03/02 09:19:07;;;;;;;14.43;12.00;;;21.10;48.60;;;;;;5009317;28;20026;-72
2021/03/02 09:21:35;;;;;;;16.25;11.52;;;22.00;48.70;;;;;;4994336;28;20034;-74
2021/03/02 09:24:01;;;;;;;13.15;11.70;;;22.60;47.50;;;;;;4993411;28;20465;-73
2021/03/02 09:26:29;;;;;;;12.98;11.52;;;22.70;44.60;;;;;;5009259;28;20023;-71
2021/03/02 09:28:58;;;;;;;14.60;11.63;;;23.10;44.40;;;;;;4999432;28;20019;-73
2021/03/02 09:31:24;;;;;;;14.35;11.90;;;23.40;44.00;;;;;;5019926;28;20025;-70
2021/03/02 09:33:51;;;;;;;13.77;11.77;;;23.70;43.00;;;;;;5021293;28;20365;-70
2021/03/02 09:36:18;;;;;;;12.50;11.07;;;23.60;44.00;;;;;;5019313;28;20045;-73
2021/03/02 09:38:46;;;;;;;17.73;12.30;;;24.00;43.00;;;;;;5016303;28;20030;-74
2021/03/02 09:41:11;;;;;;;13.98;12.35;;;22.10;46.40;;;;;;5016408;28;20030;-73
2021/03/02 09:43:38;;;;;;;13.73;11.35;;;23.50;44.20;;;;;;5014290;28;20056;-72
2021/03/02 09:46:06;;;;;;;13.43;11.88;;;21.40;45.20;;;;;;5013820;28;20105;-72
2021/03/02 09:48:47;;;;;;;13.57;11.52;;;21.50;47.60;;;;;;5014963;28;20117;-69
2021/03/02 09:51:33;;;;;;;12.27;10.98;;;23.30;44.20;;;;;;5015096;28;20504;-72
2021/03/02 09:54:25;;;;;;;14.68;11.80;;;25.10;41.60;;;;;;5013722;28;20052;-72
2021/03/02 09:56:58;;;;;;;16.88;11.50;;;25.00;41.20;;;;;;5012739;28;20042;-72
2021/03/02 09:59:25;;;;;;;16.83;11.93;;;25.70;41.80;;;;;;5014528;28;20030;-73
2021/03/02 10:01:52;;;;;;;12.40;11.20;;;26.90;39.30;;;;;;5005374;28;20029;-71
2021/03/02 10:04:18;;;;;;;14.93;12.73;;;26.80;39.50;;;;;;4995032;28;20081;-72
2021/03/02 10:06:45;;;;;;;14.73;11.57;;;27.30;38.40;;;;;;4995250;28;20018;-72
2021/03/02 10:09:26;;;;;;;16.02;11.25;;;26.70;38.90;;;;;;4993848;28;20036;-72
2021/03/02 10:12:11;;;;;;;16.52;11.90;;;26.70;39.20;;;;;;4995001;28;20045;-72
2021/03/02 10:14:42;;;;;;;17.65;11.50;;;26.30;39.60;;;;;;4997356;28;20049;-73
2021/03/02 10:17:08;;;;;;;17.00;12.13;;;26.20;39.70;;;;;;5014659;28;20026;-72
2021/03/02 10:19:35;;;;;;;14.20;11.48;;;26.90;38.00;;;;;;5014672;28;20141;-73
2021/03/02 10:22:04;;;;;;;14.55;11.82;;;26.60;37.00;;;;;;5009314;28;20145;-72
2021/03/02 10:24:41;;;;;;;12.80;10.75;;;22.90;42.90;;;;;;4993635;28;20026;-70
2021/03/02 10:27:14;;;;;;;17.02;12.27;;;24.60;41.80;;;;;;4994910;28;20030;-71
2021/03/02 10:29:41;;;;;;;15.35;12.55;;;26.30;39.30;;;;;;5002606;28;20106;-72
2021/03/02 10:32:07;;;;;;;17.65;11.52;;;26.90;38.20;;;;;;5013140;28;20022;-74
2021/03/02 10:34:35;;;;;;;13.93;11.63;;;26.40;37.70;;;;;;5013476;28;20029;-73
2021/03/02 10:37:02;;;;;;;13.55;10.68;;;26.80;38.80;;;;;;5014130;28;20057;-66
2021/03/02 10:39:28;;;;;;;14.38;12.40;;;27.30;39.90;;;;;;5012920;28;20080;-68
2021/03/02 10:41:54;;;;;;;16.80;13.10;;;28.40;37.20;;;;;;5012787;28;20029;-69
2021/03/02 10:44:20;;;;;;;15.60;12.15;;;28.20;36.20;;;;;;5013015;28;20033;-68
2021/03/02 10:46:46;;;;;;;14.50;11.25;;;28.40;36.50;;;;;;5013626;28;20109;-71
2021/03/02 10:49:12;;;;;;;12.45;11.15;;;28.90;35.60;;;;;;5015543;28;20026;-71
2021/03/02 10:51:38;;;;;;;16.90;11.98;;;26.80;36.30;;;;;;5013390;28;20030;-74
2021/03/02 10:54:04;;;;;;;13.27;11.88;;;27.30;38.20;;;;;;5013352;28;20485;-72
2021/03/02 10:56:30;;;;;;;12.88;10.77;;;28.20;37.10;;;;;;5013501;28;20106;-70
2021/03/02 10:58:55;;;;;;;14.55;11.43;;;28.10;35.60;;;;;;5008460;28;20102;-73
2021/03/02 11:01:22;;;;;;;15.30;11.43;;;28.60;35.70;;;;;;5013797;28;20033;-72
2021/03/02 11:03:49;;;;;;;12.60;10.70;;;29.60;34.70;;;;;;5013502;28;20535;-72
2021/03/02 11:06:16;;;;;;;10.90;9.57;;;28.60;34.10;;;;;;5012935;28;20044;-72
2021/03/02 11:08:44;;;;;;;14.25;11.48;;;27.90;36.80;;;;;;5010533;28;20014;-74
2021/03/02 11:11:11;;;;;;;14.48;10.48;;;29.50;34.70;;;;;;4994103;28;20054;-72
2021/03/02 11:13:37;;;;;;;14.52;11.45;;;30.70;33.90;;;;;;4993224;28;20018;-68
2021/03/02 11:16:03;;;;;;;12.00;10.68;;;29.90;33.70;;;;;;4995356;28;20061;-72
2021/03/02 11:18:28;;;;;;;12.32;11.02;;;29.20;34.60;;;;;;5000931;28;20041;-72
2021/03/02 11:20:54;;;;;;;12.02;10.68;;;30.70;33.20;;;;;;4996035;28;20033;-72
2021/03/02 11:23:20;;;;;;;14.65;9.95;;;30.50;33.70;;;;;;5012308;28;20026;-71
2021/03/02 11:25:45;;;;;;;12.52;11.23;;;30.60;32.30;;;;;;5013021;28;20029;-70
2021/03/02 11:28:12;;;;;;;11.30;10.23;;;30.70;32.20;;;;;;5013646;28;20366;-71
2021/03/02 11:30:39;;;;;;;12.15;10.55;;;31.50;30.90;;;;;;5013331;28;20026;-73
2021/03/02 11:33:06;;;;;;;13.00;10.07;;;30.70;33.20;;;;;;5012504;28;20107;-71
2021/03/02 11:35:32;;;;;;;12.88;11.18;;;31.80;30.80;;;;;;5012552;28;20030;-71
2021/03/02 11:37:58;;;;;;;11.73;10.60;;;32.50;30.40;;;;;;5012091;28;20032;-71
2021/03/02 11:40:25;;;;;;;11.95;10.50;;;32.50;30.00;;;;;;5010693;28;20030;-73
2021/03/02 11:42:52;;;;;;;13.60;10.45;;;32.80;29.40;;;;;;5000379;28;20463;-72
2021/03/02 11:45:22;;;;;;;13.65;10.05;;;33.60;29.50;;;;;;5000154;28;20018;-73
2021/03/02 11:47:48;;;;;;;11.05;9.93;;;33.90;28.90;;;;;;5002626;28;20085;-73
2021/03/02 11:50:15;;;;;;;12.65;9.93;;;33.40;29.50;;;;;;5001493;28;20014;-71
2021/03/02 11:52:41;;;;;;;12.00;10.73;;;32.90;29.20;;;;;;5005796;28;20026;-72
2021/03/02 11:55:08;;;;;;;12.35;10.60;;;33.80;28.90;;;;;;5012224;28;20081;-73
2021/03/02 11:57:35;;;;;;;12.88;10.70;;;33.80;28.40;;;;;;5012433;28;20046;-73
2021/03/02 12:00:01;;;;;;;12.85;10.68;;;33.10;28.70;;;;;;4995660;28;20477;-73
2021/03/02 12:02:27;;;;;;;14.27;11.10;;;33.40;28.80;;;;;;4991168;28;20112;-71
2021/03/02 12:04:53;;;;;;;10.52;9.38;;;32.90;29.00;;;;;;4991961;28;20030;-71
2021/03/02 12:07:19;;;;;;;12.77;10.55;;;32.20;29.00;;;;;;4992488;28;20434;-71
2021/03/02 12:09:45;;;;;;;11.63;9.57;;;31.80;29.20;;;;;;5009928;28;20033;-72
2021/03/02 12:12:10;;;;;;;17.52;10.18;;;33.00;28.80;;;;;;5012241;28;20037;-72
2021/03/02 12:14:37;;;;;;;9.63;8.82;;;32.90;28.40;;;;;;5011338;28;20412;-71
2021/03/02 12:17:02;;;;;;;15.45;9.57;;;33.30;28.40;;;;;;5011958;28;20036;-70
2021/03/02 12:19:29;;;;;;;11.82;9.60;;;33.70;27.80;;;;;;5012305;28;20671;-71
2021/03/02 12:21:54;;;;;;;10.27;9.27;;;32.40;27.20;;;;;;5012023;28;20113;-72
2021/03/02 12:24:20;;;;;;;10.60;9.50;;;32.20;27.70;;;;;;5011657;28;20061;-72
2021/03/02 12:26:47;;;;;;;11.23;9.25;;;32.30;27.50;;;;;;5012471;28;20030;-72
2021/03/02 12:29:13;;;;;;;13.45;9.88;;;30.00;28.80;;;;;;5012059;28;20052;-71
2021/03/02 12:31:41;;;;;;;13.68;10.23;;;30.70;28.80;;;;;;5011930;28;20029;-72
2021/03/02 12:34:07;;;;;;;15.20;10.15;;;30.80;28.90;;;;;;5010284;28;20068;-72
2021/03/02 12:36:32;;;;;;;14.13;10.75;;;30.40;30.00;;;;;;5011848;28;20400;-71
2021/03/02 12:38:58;;;;;;;12.95;10.95;;;30.40;29.80;;;;;;5012023;28;20022;-72